Time;durP1;ratioP1;P1;durP2;ratioP2;P2;SDS_P1;SDS_P2;PMS_P1;PMS_P2;Temp;Humidity;BMP_temperature;BMP_pressure;BME280_temperature;BME280_humidity;BME280_pressure;Samples;Min_cycle;Max_cycle;Signal;HPM_P1;HPM_P2
2022/03/31 08:48:57;;;;;;;6.47;2.88;;;11.40;82.20;;;;;;5090067;27;1542716;-82
2022/03/31 08:51:23;;;;;;;5.63;3.72;;;11.30;80.70;;;;;;5108085;28;20835;-84
2022/03/31 08:53:49;;;;;;;7.78;4.05;;;11.70;76.30;;;;;;5127598;28;20023;-84
2022/03/31 08:56:16;;;;;;;5.90;3.80;;;12.00;74.90;;;;;;5123719;28;20030;-83
2022/03/31 08:58:46;;;;;;;7.47;3.67;;;12.00;74.00;;;;;;5122033;27;20389;-83
2022/03/31 09:01:13;;;;;;;12.93;6.28;;;12.10;73.50;;;;;;5121543;27;20402;-84
2022/03/31 09:03:40;;;;;;;7.75;6.15;;;12.30;73.60;;;;;;5120830;28;20027;-83
2022/03/31 09:06:10;;;;;;;7.63;5.80;;;12.30;72.60;;;;;;5125654;28;20058;-83
2022/03/31 09:08:43;;;;;;;;;;;12.20;71.90;;;;;;5125693;28;20054;-83
2022/03/31 09:11:09;;;;;;;7.75;6.20;;;11.90;73.90;;;;;;5124828;27;19962;-84
2022/03/31 09:13:37;;;;;;;8.85;5.70;;;11.70;76.00;;;;;;5125077;27;20051;-82
2022/03/31 09:16:11;;;;;;;9.70;6.30;;;11.70;76.90;;;;;;5116751;27;20038;-81
2022/03/31 09:18:38;;;;;;;6.70;3.70;;;11.70;76.80;;;;;;5123195;27;20042;-82
2022/03/31 09:21:07;;;;;;;5.50;3.30;;;11.70;77.00;;;;;;5125685;27;20019;-81
2022/03/31 09:23:44;;;;;;;5.78;3.10;;;11.80;75.30;;;;;;5124599;27;20023;-81
2022/03/31 09:26:13;;;;;;;5.57;3.53;;;11.90;72.10;;;;;;5122956;27;20069;-81
2022/03/31 09:28:40;;;;;;;5.50;3.13;;;11.90;72.30;;;;;;5122491;27;20506;-82
2022/03/31 09:31:10;;;;;;;6.50;4.00;;;11.80;72.60;;;;;;5124297;27;20028;-81
2022/03/31 09:33:38;;;;;;;7.97;3.70;;;11.80;72.30;;;;;;5124259;27;20035;-82
2022/03/31 09:36:14;;;;;;;5.90;4.18;;;11.90;72.60;;;;;;5125305;27;20417;-81
2022/03/31 09:38:50;;;;;;;74.75;38.33;;;11.90;72.20;;;;;;5125881;28;20011;-82
2022/03/31 09:41:17;;;;;;;18.77;13.05;;;11.90;73.10;;;;;;5122775;27;20114;-82
2022/03/31 09:43:43;;;;;;;32.92;22.10;;;11.70;72.10;;;;;;5122307;27;20025;-82
2022/03/31 09:46:43;;;;;;;15.38;9.77;;;11.60;72.90;;;;;;5121338;27;20028;-82
2022/03/31 09:49:25;;;;;;;14.20;9.52;;;11.40;75.10;;;;;;5112264;28;20063;-82
2022/03/31 09:51:56;;;;;;;9.63;4.93;;;11.20;77.50;;;;;;5122840;27;20024;-82
2022/03/31 09:54:25;;;;;;;7.13;2.60;;;11.20;78.50;;;;;;5111215;28;20028;-81
2022/03/31 09:56:53;;;;;;;3.78;2.05;;;11.20;79.30;;;;;;5122694;28;20019;-82
2022/03/31 09:59:19;;;;;;;15.05;8.50;;;11.20;79.90;;;;;;5113786;28;20031;-81
2022/03/31 10:01:46;;;;;;;18.50;9.98;;;11.10;76.00;;;;;;5108917;27;20390;-81
2022/03/31 10:04:14;;;;;;;33.75;15.52;;;10.90;75.20;;;;;;5108203;28;20068;-81
2022/03/31 10:06:41;;;;;;;35.63;18.45;;;10.60;77.40;;;;;;5108949;28;20036;-81
2022/03/31 10:09:10;;;;;;;38.53;17.70;;;10.40;79.10;;;;;;5099476;28;20058;-80
2022/03/31 10:11:44;;;;;;;7.25;3.17;;;10.30;80.40;;;;;;5108988;28;20403;-80
2022/03/31 10:14:25;;;;;;;30.00;16.13;;;10.20;81.00;;;;;;5108327;28;20055;-81
2022/03/31 10:16:57;;;;;;;8.27;4.72;;;10.50;80.90;;;;;;5107859;28;20024;-80
2022/03/31 10:19:43;;;;;;;8.60;4.60;;;10.80;76.80;;;;;;5108239;27;20024;-80
2022/03/31 10:25:05;;;;;;;6.75;3.42;;;11.10;75.40;;;;;;5104516;28;20030;-82
2022/03/31 10:27:33;;;;;;;6.75;3.70;;;11.20;75.50;;;;;;5107807;28;20506;-82
2022/03/31 10:30:15;;;;;;;7.88;3.97;;;11.30;74.90;;;;;;5110955;28;20023;-80
2022/03/31 10:32:55;;;;;;;4.65;1.92;;;11.20;76.10;;;;;;5110049;28;20031;-80
2022/03/31 10:35:29;;;;;;;3.55;1.50;;;11.20;75.40;;;;;;5101002;28;20494;-82
2022/03/31 10:37:56;;;;;;;3.67;2.03;;;11.20;74.60;;;;;;5101600;28;20075;-84
2022/03/31 10:40:33;;;;;;;3.95;1.98;;;11.20;73.60;;;;;;5100052;28;20027;-83
2022/03/31 10:43:00;;;;;;;7.90;4.00;;;11.20;72.10;;;;;;5108995;28;20559;-82
2022/03/31 10:45:37;;;;;;;5.53;4.25;;;11.30;73.30;;;;;;5107606;28;20020;-82
2022/03/31 10:48:22;;;;;;;45.35;28.48;;;11.30;73.00;;;;;;5094767;28;20044;-82
2022/03/31 10:51:11;;;;;;;71.32;34.38;;;11.30;71.90;;;;;;5103586;28;20040;-83
2022/03/31 10:53:40;;;;;;;81.30;40.13;;;11.40;71.50;;;;;;5109620;28;20454;-83
2022/03/31 10:56:24;;;;;;;142.50;64.53;;;11.90;67.20;;;;;;5107056;27;20081;-83
2022/03/31 10:58:52;;;;;;;53.35;25.88;;;12.10;66.80;;;;;;5103462;27;20521;-83
2022/03/31 11:01:23;;;;;;;17.85;8.45;;;12.20;65.00;;;;;;5102879;28;20106;-84
2022/03/31 11:03:50;;;;;;;88.80;41.70;;;12.20;65.10;;;;;;5103326;28;20511;-83
2022/03/31 11:06:17;;;;;;;47.03;23.15;;;12.30;64.10;;;;;;5094273;28;20582;-83
2022/03/31 11:08:48;;;;;;;51.80;24.25;;;12.20;63.60;;;;;;5111675;28;20040;-83
2022/03/31 11:11:28;;;;;;;46.33;23.50;;;11.80;64.70;;;;;;5095822;28;20027;-83
2022/03/31 11:13:55;;;;;;;47.40;21.52;;;11.50;65.60;;;;;;5102300;28;20043;-83
2022/03/31 11:16:22;;;;;;;59.50;28.25;;;11.20;66.30;;;;;;5108911;28;20497;-83
2022/03/31 11:18:59;;;;;;;35.97;18.85;;;11.00;68.20;;;;;;5107136;28;20131;-81
2022/03/31 11:21:34;;;;;;;37.85;21.40;;;10.80;69.20;;;;;;5107187;28;20103;-82
2022/03/31 11:23:59;;;;;;;14.93;8.02;;;10.70;70.80;;;;;;5092868;28;20111;-82
2022/03/31 11:26:30;;;;;;;2.55;1.00;;;10.50;71.30;;;;;;5108526;28;20111;-83
2022/03/31 11:28:57;;;;;;;21.23;8.02;;;10.50;71.50;;;;;;5099839;28;20039;-80
2022/03/31 11:31:23;;;;;;;7.03;2.72;;;10.40;72.60;;;;;;5100832;28;20560;-82
2022/03/31 11:33:50;;;;;;;62.05;28.65;;;10.30;73.70;;;;;;5095490;28;20616;-79
2022/03/31 11:36:22;;;;;;;58.38;26.23;;;10.40;72.30;;;;;;5107772;27;20034;-82
2022/03/31 11:38:59;;;;;;;39.17;18.15;;;10.30;73.20;;;;;;5104634;28;20035;-82
2022/03/31 11:41:36;;;;;;;16.52;7.82;;;10.40;72.80;;;;;;5105906;28;20038;-82
2022/03/31 11:44:02;;;;;;;36.60;16.45;;;10.50;72.80;;;;;;5097194;28;20509;-82
2022/03/31 11:46:41;;;;;;;28.67;13.45;;;10.80;71.10;;;;;;5098600;28;20081;-82
2022/03/31 11:49:21;;;;;;;47.20;22.48;;;10.90;70.10;;;;;;5104589;28;20428;-82
2022/03/31 11:52:07;;;;;;;36.00;15.63;;;11.10;68.70;;;;;;5106891;28;20020;-82
2022/03/31 11:54:41;;;;;;;48.75;19.60;;;11.20;67.40;;;;;;5108453;28;20066;-82
2022/03/31 11:57:13;;;;;;;54.30;26.35;;;11.30;70.00;;;;;;5099693;28;20127;-82
2022/03/31 11:59:38;;;;;;;44.83;23.38;;;11.60;66.20;;;;;;5110733;28;20028;-78
2022/03/31 12:02:16;;;;;;;38.50;17.70;;;11.50;65.10;;;;;;5107119;28;20505;-81
2022/03/31 12:04:47;;;;;;;36.70;18.33;;;11.30;68.10;;;;;;5105861;28;20068;-80
2022/03/31 12:07:16;;;;;;;43.70;21.88;;;11.10;68.70;;;;;;5107630;28;20047;-80
2022/03/31 12:09:43;;;;;;;45.05;21.83;;;10.90;70.00;;;;;;5105870;28;20035;-81
2022/03/31 12:12:15;;;;;;;10.13;4.10;;;11.00;70.20;;;;;;5092886;28;20054;-80
2022/03/31 12:14:53;;;;;;;32.53;16.20;;;10.90;69.60;;;;;;5101075;28;20020;-81
2022/03/31 12:17:19;;;;;;;27.98;13.32;;;11.00;65.90;;;;;;5104361;27;20036;-80
2022/03/31 12:19:46;;;;;;;34.03;16.85;;;10.90;66.90;;;;;;5105685;28;20047;-80
2022/03/31 12:22:12;;;;;;;38.00;18.80;;;10.80;69.20;;;;;;5103345;28;20027;-80
2022/03/31 12:24:52;;;;;;;45.67;22.67;;;10.70;69.80;;;;;;5108366;28;20069;-81
2022/03/31 12:27:19;;;;;;;21.08;10.02;;;10.60;69.90;;;;;;5106203;28;20044;-81
2022/03/31 12:29:57;;;;;;;45.38;22.50;;;10.70;68.70;;;;;;5108927;28;20031;-81
2022/03/31 12:32:22;;;;;;;44.78;20.90;;;10.70;68.50;;;;;;5104326;28;20062;-81
2022/03/31 12:34:56;;;;;;;54.28;24.38;;;10.80;67.20;;;;;;5103922;28;20473;-81
2022/03/31 12:37:31;;;;;;;25.52;13.98;;;10.90;67.10;;;;;;5101551;28;20057;-83
2022/03/31 12:39:58;;;;;;;36.58;20.50;;;10.80;65.30;;;;;;5103050;28;20031;-78
2022/03/31 12:42:24;;;;;;;38.08;22.13;;;10.80;64.30;;;;;;5096521;28;20032;-80
2022/03/31 12:44:50;;;;;;;24.33;13.25;;;10.70;64.80;;;;;;5109710;28;20028;-78
2022/03/31 12:47:25;;;;;;;42.67;24.42;;;10.60;66.30;;;;;;5105829;28;20081;-79
2022/03/31 12:49:52;;;;;;;30.50;14.63;;;10.70;66.20;;;;;;5101079;28;20036;-78
2022/03/31 12:52:21;;;;;;;60.38;35.22;;;10.50;66.00;;;;;;5104411;28;20036;-77
2022/03/31 12:54:53;;;;;;;49.50;28.02;;;10.30;68.30;;;;;;5105679;28;20108;-77
2022/03/31 12:57:24;;;;;;;21.75;11.18;;;10.00;69.00;;;;;;5091818;28;20635;-78
2022/03/31 12:59:59;;;;;;;28.25;16.77;;;9.90;69.50;;;;;;5090657;28;20038;-78
2022/03/31 13:02:25;;;;;;;82.05;46.60;;;9.70;68.90;;;;;;5098497;28;20119;-78
2022/03/31 13:04:52;;;;;;;89.38;51.17;;;9.80;68.00;;;;;;5099870;28;20042;-78
2022/03/31 13:07:27;;;;;;;51.10;25.52;;;9.70;67.20;;;;;;5104917;28;20548;-81
2022/03/31 13:09:53;;;;;;;82.00;43.08;;;9.70;69.20;;;;;;5098966;28;20062;-81
2022/03/31 13:12:19;;;;;;;87.80;47.58;;;9.80;69.70;;;;;;5106059;28;20051;-83
2022/03/31 13:14:46;;;;;;;77.45;40.08;;;9.90;70.00;;;;;;5104993;28;20086;-81
2022/03/31 13:17:16;;;;;;;66.35;35.67;;;10.10;69.60;;;;;;5101375;28;20036;-81
2022/03/31 13:19:43;;;;;;;10.80;5.60;;;10.30;68.30;;;;;;5104525;28;20419;-82
2022/03/31 13:22:11;;;;;;;52.05;25.73;;;10.40;66.20;;;;;;5104821;28;20110;-83
2022/03/31 13:24:37;;;;;;;47.35;23.35;;;10.60;65.30;;;;;;5105004;28;20100;-82
2022/03/31 13:27:04;;;;;;;42.97;21.83;;;10.70;65.90;;;;;;5107157;28;20041;-81
2022/03/31 13:29:31;;;;;;;45.60;22.10;;;10.80;64.60;;;;;;5107438;28;20032;-80
2022/03/31 13:31:58;;;;;;;63.67;28.38;;;10.90;64.40;;;;;;5106325;28;20020;-79
2022/03/31 13:34:31;;;;;;;57.15;26.90;;;10.80;65.10;;;;;;5107407;28;20084;-79
2022/03/31 13:37:01;;;;;;;66.63;31.35;;;10.80;65.90;;;;;;5099791;28;20032;-78
2022/03/31 13:39:29;;;;;;;51.75;25.77;;;10.80;66.80;;;;;;5093620;28;20053;-79
2022/03/31 13:41:56;;;;;;;27.13;14.60;;;10.90;65.90;;;;;;5108949;28;20084;-78
2022/03/31 13:44:24;;;;;;;56.92;30.15;;;11.10;66.20;;;;;;5109148;28;20035;-79
2022/03/31 13:46:52;;;;;;;49.10;27.20;;;11.30;66.10;;;;;;5108807;28;20046;-78
2022/03/31 13:49:20;;;;;;;13.65;5.05;;;11.50;63.80;;;;;;5102787;28;20553;-79
2022/03/31 13:51:47;;;;;;;8.95;3.38;;;11.60;63.30;;;;;;5105485;28;20100;-80
2022/03/31 13:54:15;;;;;;;11.43;3.88;;;11.60;62.50;;;;;;5101396;28;20036;-78
2022/03/31 13:56:43;;;;;;;6.80;3.83;;;11.50;63.60;;;;;;5112737;28;20482;-78
2022/03/31 14:01:57;;;;;;;8.07;2.40;;;11.40;62.60;;;;;;5108927;28;20493;-79
2022/03/31 14:04:24;;;;;;;8.15;2.80;;;11.90;62.30;;;;;;5108486;28;20406;-78
2022/03/31 14:06:51;;;;;;;6.43;2.15;;;12.30;61.60;;;;;;5108606;28;20034;-79
2022/03/31 14:09:22;;;;;;;5.70;2.80;;;12.50;59.90;;;;;;5104898;28;20042;-78
2022/03/31 14:11:50;;;;;;;5.30;1.73;;;12.70;60.10;;;;;;5112317;28;20554;-78
2022/03/31 14:14:18;;;;;;;26.83;18.05;;;12.80;59.50;;;;;;5107166;28;20035;-79
2022/03/31 14:16:48;;;;;;;16.70;10.95;;;13.00;58.70;;;;;;5108148;28;20458;-80
2022/03/31 14:19:16;;;;;;;9.63;2.20;;;13.40;57.30;;;;;;5109662;28;20028;-78
2022/03/31 14:21:43;;;;;;;9.10;2.15;;;13.80;55.60;;;;;;5109344;28;20172;-77
2022/03/31 14:24:11;;;;;;;12.15;4.63;;;14.00;54.40;;;;;;5110539;28;20490;-79
2022/03/31 14:26:38;;;;;;;11.77;5.13;;;14.10;54.60;;;;;;5112159;28;20027;-79
2022/03/31 14:29:05;;;;;;;7.72;3.45;;;14.20;52.70;;;;;;5106571;28;20040;-82
2022/03/31 14:31:31;;;;;;;21.67;17.02;;;14.10;52.20;;;;;;5109405;27;20038;-80
2022/03/31 14:33:58;;;;;;;9.48;5.82;;;13.70;52.40;;;;;;5109208;28;20038;-81
2022/03/31 14:36:25;;;;;;;13.32;11.57;;;13.30;51.10;;;;;;5093533;28;20016;-82
2022/03/31 14:38:53;;;;;;;19.05;16.30;;;12.50;49.00;;;;;;5100375;28;20081;-81
2022/03/31 14:41:20;;;;;;;12.02;7.05;;;12.10;49.60;;;;;;5090201;28;20767;-83
2022/03/31 14:43:48;;;;;;;11.60;5.93;;;12.40;47.90;;;;;;5201941;22;20064;-80
2022/03/31 14:46:18;;;;;;;21.48;11.15;;;12.70;47.40;;;;;;5114331;22;20061;-80
2022/03/31 14:48:47;;;;;;;11.73;8.48;;;13.40;46.30;;;;;;5043546;28;20056;-79
2022/03/31 14:51:22;;;;;;;12.82;9.98;;;15.30;41.10;;;;;;5042493;28;20460;-81
2022/03/31 14:53:56;;;;;;;12.55;8.68;;;17.30;37.00;;;;;;5046842;28;20033;-79
2022/03/31 14:56:26;;;;;;;9.93;8.35;;;18.20;34.20;;;;;;5043736;28;20400;-80
2022/03/31 14:58:55;;;;;;;16.27;14.15;;;17.90;35.10;;;;;;5056046;28;20032;-81
2022/03/31 15:01:29;;;;;;;10.68;6.63;;;16.70;37.70;;;;;;5046935;28;20021;-80
2022/03/31 15:03:57;;;;;;;8.43;4.70;;;15.80;39.30;;;;;;5040519;28;20022;-79
2022/03/31 15:06:28;;;;;;;7.90;5.10;;;15.00;39.80;;;;;;5050166;28;20029;-80
2022/03/31 15:08:59;;;;;;;7.35;2.72;;;14.40;40.70;;;;;;5047610;28;20041;-78
2022/03/31 15:14:36;;;;;;;7.28;2.70;;;13.60;42.00;;;;;;5043404;28;20079;-77
2022/03/31 15:17:02;;;;;;;9.10;3.78;;;13.70;43.20;;;;;;5041961;28;20120;-78
2022/03/31 15:19:33;;;;;;;16.42;12.02;;;13.80;43.40;;;;;;5043171;28;20406;-82
2022/03/31 15:21:59;;;;;;;4.40;1.70;;;13.50;42.40;;;;;;5050784;28;20044;-81
2022/03/31 15:24:31;;;;;;;4.82;1.83;;;13.30;41.00;;;;;;5047778;28;20033;-78
2022/03/31 15:26:57;;;;;;;5.75;1.70;;;13.00;38.80;;;;;;5050061;28;20037;-80
2022/03/31 15:29:25;;;;;;;9.07;2.13;;;12.50;40.70;;;;;;5054372;28;20420;-78
2022/03/31 15:31:52;;;;;;;4.13;1.85;;;12.20;42.20;;;;;;5045979;28;20029;-77
2022/03/31 15:34:19;;;;;;;8.68;4.70;;;12.20;43.70;;;;;;5046332;28;20036;-78
2022/03/31 15:36:45;;;;;;;8.27;4.15;;;11.90;45.00;;;;;;5049096;28;20392;-77
2022/03/31 15:39:12;;;;;;;26.02;10.38;;;11.80;46.50;;;;;;5037377;28;20114;-77
2022/03/31 15:41:39;;;;;;;12.63;6.50;;;11.80;47.60;;;;;;5049481;28;20033;-77
2022/03/31 15:44:05;;;;;;;43.67;17.30;;;11.80;48.00;;;;;;5039749;28;20026;-79
2022/03/31 15:46:32;;;;;;;11.00;5.53;;;11.90;47.40;;;;;;5037070;28;20045;-78
2022/03/31 15:48:59;;;;;;;12.07;4.22;;;12.00;47.40;;;;;;5042445;28;20045;-80
2022/03/31 15:51:27;;;;;;;10.15;4.00;;;12.10;48.00;;;;;;5033926;28;20027;-79
2022/03/31 15:53:54;;;;;;;10.57;6.80;;;12.30;47.00;;;;;;5050851;28;20037;-79
2022/03/31 15:56:23;;;;;;;7.55;3.92;;;12.50;47.90;;;;;;5048631;28;20021;-77
2022/03/31 15:58:54;;;;;;;6.07;3.60;;;12.80;46.60;;;;;;5041723;28;20043;-78
2022/03/31 16:01:25;;;;;;;10.15;3.90;;;13.10;44.80;;;;;;5037324;28;20017;-75
2022/03/31 16:03:53;;;;;;;7.72;3.00;;;13.40;43.70;;;;;;5034078;28;20029;-78
2022/03/31 16:06:22;;;;;;;6.32;2.10;;;13.10;45.60;;;;;;5046107;28;20036;-76
2022/03/31 16:08:48;;;;;;;6.47;2.03;;;12.50;49.70;;;;;;5038328;28;20076;-78
2022/03/31 16:11:14;;;;;;;7.05;1.80;;;11.50;55.20;;;;;;5039918;28;20502;-78
2022/03/31 16:13:41;;;;;;;6.93;3.78;;;10.50;58.70;;;;;;5042017;28;20155;-75
2022/03/31 16:16:07;;;;;;;8.20;5.80;;;9.70;62.30;;;;;;5035812;28;20033;-75
2022/03/31 16:18:33;;;;;;;6.90;1.80;;;9.10;68.30;;;;;;5047942;28;20036;-75
2022/03/31 16:21:00;;;;;;;5.60;1.42;;;8.60;71.60;;;;;;5034816;28;20029;-76
2022/03/31 16:23:42;;;;;;;4.07;1.30;;;8.10;74.60;;;;;;5045663;28;20079;-77
2022/03/31 16:26:18;;;;;;;4.80;1.80;;;7.90;76.20;;;;;;5038532;28;20061;-76
2022/03/31 16:28:46;;;;;;;4.75;1.40;;;7.70;78.80;;;;;;5037825;28;20109;-77
2022/03/31 16:31:12;;;;;;;4.88;1.55;;;7.60;79.60;;;;;;5044781;28;20052;-75
2022/03/31 16:33:39;;;;;;;4.57;1.95;;;7.70;79.80;;;;;;5034770;28;20056;-76
2022/03/31 16:36:10;;;;;;;3.17;1.30;;;7.60;80.20;;;;;;5047642;28;20129;-76
2022/03/31 16:38:37;;;;;;;5.55;1.30;;;7.60;80.20;;;;;;5048539;28;20029;-77
2022/03/31 16:41:03;;;;;;;4.68;1.50;;;7.60;80.60;;;;;;5038759;28;20029;-78
2022/03/31 16:43:32;;;;;;;11.48;7.38;;;7.60;80.80;;;;;;5039127;28;20155;-75
2022/03/31 16:45:58;;;;;;;11.50;7.65;;;7.70;81.30;;;;;;5042670;28;20029;-74
2022/03/31 16:48:25;;;;;;;9.50;6.13;;;7.80;80.90;;;;;;5054546;28;20059;-76
2022/03/31 16:50:51;;;;;;;10.40;7.00;;;7.90;79.10;;;;;;5040301;28;20072;-75
2022/03/31 16:53:18;;;;;;;8.30;5.22;;;8.00;78.50;;;;;;5044604;28;20120;-74
2022/03/31 16:55:44;;;;;;;5.70;3.15;;;8.10;76.60;;;;;;5047700;28;20055;-78
2022/03/31 16:58:10;;;;;;;8.82;6.35;;;7.90;76.40;;;;;;5044638;28;20143;-74
2022/03/31 17:00:37;;;;;;;8.40;5.95;;;8.00;77.50;;;;;;5041938;28;20542;-78
2022/03/31 17:03:05;;;;;;;10.77;7.45;;;8.10;77.50;;;;;;5038267;28;20033;-79
2022/03/31 17:05:31;;;;;;;11.88;7.28;;;8.10;76.40;;;;;;5047014;28;20025;-78
2022/03/31 17:07:58;;;;;;;20.88;16.17;;;7.90;75.60;;;;;;5041472;28;20045;-78
2022/03/31 17:10:24;;;;;;;13.18;9.05;;;7.70;77.80;;;;;;5045514;28;20059;-80
2022/03/31 17:12:50;;;;;;;12.73;7.65;;;7.70;76.60;;;;;;5047897;28;20033;-79
2022/03/31 17:15:17;;;;;;;9.40;4.47;;;7.70;76.30;;;;;;5048893;28;20432;-83
2022/03/31 17:17:45;;;;;;;11.43;5.30;;;7.60;76.60;;;;;;5045615;28;20041;-81
2022/03/31 17:20:13;;;;;;;12.95;6.90;;;7.50;76.90;;;;;;5046848;28;20020;-82
2022/03/31 17:22:39;;;;;;;29.15;17.15;;;7.50;76.90;;;;;;5047007;28;20510;-80
2022/03/31 17:25:06;;;;;;;17.80;10.23;;;7.50;77.20;;;;;;5048451;28;20025;-81
2022/03/31 17:27:33;;;;;;;17.23;9.52;;;7.50;76.20;;;;;;5051362;28;20036;-79
2022/03/31 17:29:59;;;;;;;18.70;13.02;;;7.40;76.20;;;;;;5045801;28;20024;-81
2022/03/31 17:32:27;;;;;;;18.40;11.35;;;7.40;75.00;;;;;;5048841;28;20036;-78
2022/03/31 17:34:54;;;;;;;13.38;7.00;;;7.40;75.10;;;;;;5042759;28;20036;-80
2022/03/31 17:37:21;;;;;;;9.27;4.30;;;7.40;75.30;;;;;;5045847;28;20060;-81
2022/03/31 17:39:47;;;;;;;11.43;4.97;;;7.40;74.60;;;;;;5036617;28;20036;-81
2022/03/31 17:42:13;;;;;;;9.57;4.70;;;7.50;74.10;;;;;;5041538;28;20476;-78
2022/03/31 17:44:40;;;;;;;11.25;5.88;;;7.50;74.10;;;;;;5044240;28;20055;-81
2022/03/31 17:47:06;;;;;;;31.13;13.95;;;7.60;73.90;;;;;;5034779;28;20091;-79
2022/03/31 17:49:32;;;;;;;23.90;10.05;;;7.70;74.30;;;;;;5042853;28;20025;-78
2022/03/31 17:52:05;;;;;;;63.58;24.73;;;7.70;74.10;;;;;;5045100;28;20056;-77
2022/03/31 17:54:31;;;;;;;54.03;24.88;;;7.60;74.40;;;;;;5044902;28;20795;-76
2022/03/31 17:56:57;;;;;;;25.27;13.65;;;7.50;74.50;;;;;;5035295;28;20097;-77
2022/03/31 17:59:23;;;;;;;31.23;14.80;;;7.50;75.00;;;;;;5039653;28;20025;-77
2022/03/31 18:01:49;;;;;;;30.17;14.60;;;7.40;75.00;;;;;;5041197;28;20075;-77
2022/03/31 18:04:19;;;;;;;20.00;10.65;;;7.30;75.20;;;;;;5040085;28;20014;-78
2022/03/31 18:06:45;;;;;;;15.27;8.75;;;7.20;75.50;;;;;;5045713;28;20473;-79
2022/03/31 18:09:12;;;;;;;15.95;7.38;;;7.20;75.70;;;;;;5048126;28;20679;-78
2022/03/31 18:11:38;;;;;;;13.55;5.85;;;7.10;75.90;;;;;;5036871;28;20057;-80
2022/03/31 18:14:04;;;;;;;45.28;28.05;;;7.00;76.80;;;;;;5035858;28;20037;-78
2022/03/31 18:16:30;;;;;;;30.55;16.38;;;6.90;77.20;;;;;;5036604;28;20033;-78
2022/03/31 18:18:56;;;;;;;19.45;10.43;;;6.90;76.50;;;;;;5038696;28;20118;-77
2022/03/31 18:21:21;;;;;;;20.02;10.15;;;6.90;76.70;;;;;;5047125;28;20500;-77
2022/03/31 18:23:48;;;;;;;21.95;10.10;;;6.80;77.00;;;;;;5037858;28;20033;-77
2022/03/31 18:26:14;;;;;;;16.60;7.68;;;6.70;77.00;;;;;;5043644;28;20118;-79
2022/03/31 18:28:45;;;;;;;16.70;7.75;;;6.70;77.30;;;;;;5041377;28;20037;-78
2022/03/31 18:33:57;;;;;;;8.73;3.55;;;6.60;78.90;;;;;;5042021;28;20090;-79
2022/03/31 18:36:28;;;;;;;8.07;3.70;;;6.50;78.40;;;;;;5033441;28;20028;-78
2022/03/31 18:38:56;;;;;;;9.63;5.15;;;6.50;78.60;;;;;;5036442;28;20064;-79
2022/03/31 18:41:24;;;;;;;13.63;5.40;;;6.40;78.90;;;;;;5050344;28;20119;-78
2022/03/31 18:43:51;;;;;;;7.47;3.20;;;6.40;79.30;;;;;;5040753;28;20032;-79
2022/03/31 18:46:19;;;;;;;10.15;3.00;;;6.30;79.80;;;;;;5035172;28;20045;-78
2022/03/31 18:48:45;;;;;;;6.57;2.60;;;6.30;80.20;;;;;;5046096;28;20033;-79
2022/03/31 18:51:11;;;;;;;8.23;3.50;;;6.30;80.40;;;;;;5048052;28;20039;-79
2022/03/31 18:53:39;;;;;;;10.63;4.88;;;6.20;80.20;;;;;;5036360;28;20485;-79
2022/03/31 18:56:06;;;;;;;9.77;4.18;;;6.10;80.20;;;;;;5035993;28;20051;-79
2022/03/31 18:58:35;;;;;;;28.05;19.25;;;6.10;80.20;;;;;;5035692;28;20037;-79
2022/03/31 19:01:04;;;;;;;15.90;9.00;;;6.00;80.10;;;;;;5035678;28;20076;-78
2022/03/31 19:03:30;;;;;;;51.70;34.55;;;6.00;80.10;;;;;;5033923;28;20127;-79
2022/03/31 19:06:57;;;;;;;51.45;33.67;;;5.90;79.90;;;;;;5047053;28;20510;-79
2022/03/31 19:08:42;;;;;;;30.20;20.27;;;5.80;79.50;;;;;;5035464;28;20037;-78
2022/03/31 19:11:07;;;;;;;19.63;10.93;;;5.80;79.60;;;;;;5044708;28;20029;-79
2022/03/31 19:13:33;;;;;;;28.35;17.10;;;5.80;79.40;;;;;;5045876;28;20031;-78
2022/03/31 19:15:59;;;;;;;25.63;16.02;;;5.70;78.80;;;;;;5043620;28;20037;-81
2022/03/31 19:18:24;;;;;;;18.13;8.27;;;5.70;78.40;;;;;;5039594;28;20028;-80
2022/03/31 19:20:50;;;;;;;12.15;3.60;;;5.70;77.90;;;;;;5045418;28;20059;-78
2022/03/31 19:23:18;;;;;;;12.88;2.88;;;5.70;77.80;;;;;;5044756;28;20155;-79
2022/03/31 19:25:45;;;;;;;11.70;2.45;;;5.70;77.50;;;;;;5043419;28;20112;-78
2022/03/31 19:28:14;;;;;;;7.75;2.70;;;5.80;76.10;;;;;;5042369;28;20546;-79
2022/03/31 19:30:43;;;;;;;13.80;2.85;;;5.80;75.50;;;;;;5034276;28;20505;-78
2022/03/31 19:33:10;;;;;;;11.57;2.95;;;5.80;75.10;;;;;;5036835;28;20029;-77
2022/03/31 19:35:37;;;;;;;8.95;3.28;;;5.90;75.20;;;;;;5034760;28;20038;-78
2022/03/31 19:38:03;;;;;;;12.80;3.20;;;5.80;74.90;;;;;;5043860;28;20021;-78
2022/03/31 19:40:30;;;;;;;9.27;3.03;;;5.90;74.80;;;;;;5041731;28;20048;-78
2022/03/31 19:42:57;;;;;;;9.85;3.10;;;5.80;74.90;;;;;;5055099;28;20035;-77
2022/03/31 19:45:23;;;;;;;9.65;3.10;;;5.70;75.10;;;;;;5045927;28;20040;-78
2022/03/31 19:47:49;;;;;;;12.05;2.85;;;5.70;74.90;;;;;;5034700;28;20061;-78
2022/03/31 19:50:16;;;;;;;8.88;2.60;;;5.70;74.90;;;;;;5038672;28;20021;-78
2022/03/31 19:52:42;;;;;;;8.23;3.33;;;5.60;75.10;;;;;;5042960;28;20094;-79
2022/03/31 19:55:10;;;;;;;11.25;4.82;;;5.70;75.10;;;;;;5043145;28;20040;-77
2022/03/31 19:57:36;;;;;;;21.60;8.98;;;5.60;75.10;;;;;;5045045;28;20048;-78
2022/03/31 20:00:04;;;;;;;12.65;4.35;;;5.60;75.00;;;;;;5031237;28;20114;-78
2022/03/31 20:02:30;;;;;;;9.70;3.13;;;5.60;74.90;;;;;;5047379;28;20040;-78
2022/03/31 20:04:56;;;;;;;9.02;2.63;;;5.60;74.30;;;;;;5013654;28;20076;-78
2022/03/31 20:07:22;;;;;;;8.43;2.42;;;5.60;74.10;;;;;;5039003;28;20072;-78
2022/03/31 20:09:48;;;;;;;10.52;3.40;;;5.60;74.00;;;;;;5034580;28;20037;-78
2022/03/31 20:12:14;;;;;;;9.05;3.08;;;5.60;73.80;;;;;;5043789;28;20071;-79
2022/03/31 20:14:40;;;;;;;11.45;2.50;;;5.60;73.20;;;;;;5041779;28;20036;-78
2022/03/31 20:17:07;;;;;;;10.52;2.40;;;5.60;73.50;;;;;;5037524;28;20112;-78
2022/03/31 20:19:33;;;;;;;9.23;2.47;;;5.60;73.00;;;;;;5036550;28;20115;-78
2022/03/31 20:21:59;;;;;;;9.93;2.33;;;5.60;73.20;;;;;;5035446;28;20083;-78
2022/03/31 20:24:28;;;;;;;8.50;1.80;;;5.60;73.00;;;;;;5048349;28;20057;-78
2022/03/31 20:26:54;;;;;;;10.13;2.58;;;5.60;73.20;;;;;;5045728;28;20021;-79
2022/03/31 20:29:20;;;;;;;8.88;2.80;;;5.60;72.70;;;;;;5036283;28;20045;-79
2022/03/31 20:31:46;;;;;;;9.02;1.88;;;5.60;72.80;;;;;;5036629;28;20064;-79
2022/03/31 20:34:13;;;;;;;9.15;2.42;;;5.60;72.10;;;;;;5043158;28;20028;-77
2022/03/31 20:36:38;;;;;;;11.30;2.67;;;5.60;72.20;;;;;;5033061;28;20461;-78
2022/03/31 20:39:06;;;;;;;10.57;4.57;;;5.60;72.10;;;;;;5037008;28;20518;-78
2022/03/31 20:41:32;;;;;;;9.73;3.17;;;5.60;71.90;;;;;;5035044;28;20408;-78
2022/03/31 20:44:00;;;;;;;10.55;2.63;;;5.60;70.90;;;;;;5042544;28;20179;-79
2022/03/31 20:46:29;;;;;;;10.35;2.60;;;5.60;70.70;;;;;;5044143;28;20045;-79
2022/03/31 20:48:56;;;;;;;11.73;2.25;;;5.60;70.50;;;;;;5035392;28;20045;-79
2022/03/31 20:51:22;;;;;;;8.38;1.70;;;5.60;70.00;;;;;;5031720;28;20155;-79
2022/03/31 20:53:47;;;;;;;8.15;1.90;;;5.60;70.10;;;;;;5036428;28;20112;-78
2022/03/31 20:56:13;;;;;;;8.15;1.92;;;5.60;70.00;;;;;;5048540;28;20025;-77
2022/03/31 20:58:40;;;;;;;7.10;1.40;;;5.60;69.40;;;;;;5033260;28;20021;-78
2022/03/31 21:01:06;;;;;;;9.85;1.50;;;5.60;69.70;;;;;;5040482;28;20028;-78
2022/03/31 21:03:32;;;;;;;9.18;2.15;;;5.60;69.90;;;;;;5032582;28;20040;-78
2022/03/31 21:05:58;;;;;;;9.43;1.52;;;5.60;69.40;;;;;;5039237;28;20013;-78
2022/03/31 21:08:24;;;;;;;8.18;1.50;;;5.60;69.20;;;;;;5039591;28;20049;-79
2022/03/31 21:10:50;;;;;;;5.10;1.33;;;5.60;69.40;;;;;;5038988;28;20534;-86
2022/03/31 21:13:16;;;;;;;6.63;1.40;;;5.60;69.60;;;;;;5040863;28;20527;-79
2022/03/31 21:15:42;;;;;;;5.22;1.42;;;5.60;69.80;;;;;;5039802;28;20028;-78
2022/03/31 21:18:07;;;;;;;5.80;1.60;;;5.60;70.10;;;;;;5039192;28;20120;-79
2022/03/31 21:20:34;;;;;;;5.80;1.60;;;5.50;70.40;;;;;;5047575;28;20029;-79
2022/03/31 21:23:00;;;;;;;6.95;1.50;;;5.50;70.90;;;;;;5043451;28;20450;-80
2022/03/31 21:25:31;;;;;;;4.95;1.65;;;5.60;71.40;;;;;;5036683;28;20025;-79
2022/03/31 21:27:58;;;;;;;;;;;5.60;72.20;;;;;;5040380;28;20569;-79
2022/03/31 21:30:25;;;;;;;8.30;1.50;;;5.50;72.60;;;;;;5035077;28;19917;-79
2022/03/31 21:32:53;;;;;;;7.20;2.05;;;5.50;73.20;;;;;;5044853;28;20063;-79
2022/03/31 21:35:19;;;;;;;8.32;1.95;;;5.50;73.70;;;;;;5038730;28;20048;-79
2022/03/31 21:37:47;;;;;;;9.02;2.03;;;5.50;74.40;;;;;;5040217;28;20021;-79
2022/03/31 21:40:14;;;;;;;5.20;1.70;;;5.50;74.90;;;;;;5040280;28;20029;-79
2022/03/31 21:42:40;;;;;;;8.82;2.33;;;5.50;75.10;;;;;;5039193;28;20487;-79
2022/03/31 21:45:07;;;;;;;11.93;1.80;;;5.50;75.30;;;;;;5042707;28;20562;-79
2022/03/31 21:47:34;;;;;;;6.28;1.92;;;5.50;75.30;;;;;;5043057;28;20833;-78
2022/03/31 21:50:01;;;;;;;8.75;2.03;;;5.50;74.90;;;;;;5037683;28;20025;-79